sensor_id;sensor_type;location;lat;lon;timestamp;pressure;altitude;pressure_sealevel;temperature;humidity
14757;BME280;62446;53.214;10.398;2022-11-12T00:00:00;102883.28;;;3.19;75.12
14757;BME280;62446;53.214;10.398;2022-11-12T00:03:23;102890.16;;;3.23;74.72
14757;BME280;62446;53.214;10.398;2022-11-12T00:06:46;102877.88;;;3.07;74.00
14757;BME280;62446;53.214;10.398;2022-11-12T00:10:09;102878.63;;;2.98;75.17
14757;BME280;62446;53.214;10.398;2022-11-12T00:13:32;102889.13;;;2.82;76.50
14757;BME280;62446;53.214;10.398;2022-11-12T00:16:54;102883.63;;;2.61;76.79
14757;BME280;62446;53.214;10.398;2022-11-12T00:20:16;102886.84;;;2.32;78.84
14757;BME280;62446;53.214;10.398;2022-11-12T00:23:39;102886.84;;;2.43;78.40
14757;BME280;62446;53.214;10.398;2022-11-12T00:27:03;102886.19;;;2.51;79.41
14757;BME280;62446;53.214;10.398;2022-11-12T00:30:25;102875.63;;;2.25;78.73
14757;BME280;62446;53.214;10.398;2022-11-12T00:33:47;102874.47;;;2.28;78.50
14757;BME280;62446;53.214;10.398;2022-11-12T00:37:09;102870.66;;;2.19;78.61
14757;BME280;62446;53.214;10.398;2022-11-12T16:30:31;102895.59;;;4.77;85.88
14757;BME280;62446;53.214;10.398;2022-11-12T16:33:54;102892.84;;;4.97;82.68
14757;BME280;62446;53.214;10.398;2022-11-12T16:37:16;102895.88;;;5.04;81.29
14757;BME280;62446;53.214;10.398;2022-11-12T16:40:39;102897.47;;;4.96;80.17
14757;BME280;62446;53.214;10.398;2022-11-12T16:44:01;102896.44;;;4.88;80.79
14757;BME280;62446;53.214;10.398;2022-11-12T16:47:25;102895.28;;;4.80;82.05
14757;BME280;62446;53.214;10.398;2022-11-12T16:50:47;102891.81;;;4.78;81.91
14757;BME280;62446;53.214;10.398;2022-11-12T16:54:10;102887.09;;;4.61;82.30
14757;BME280;62446;53.214;10.398;2022-11-12T16:57:32;102882.00;;;4.46;81.97
14757;BME280;62446;53.214;10.398;2022-11-12T17:00:54;102882.28;;;4.43;82.52
14757;BME280;62446;53.214;10.398;2022-11-12T17:04:18;102877.13;;;4.50;80.99
14757;BME280;62446;53.214;10.398;2022-11-12T17:07:40;102887.75;;;4.43;80.48
14757;BME280;62446;53.214;10.398;2022-11-12T17:11:07;102884.56;;;4.38;80.34
14757;BME280;62446;53.214;10.398;2022-11-12T17:14:30;102888.28;;;4.37;80.35
14757;BME280;62446;53.214;10.398;2022-11-12T17:17:52;102877.50;;;4.26;79.38
14757;BME280;62446;53.214;10.398;2022-11-12T17:21:17;102881.09;;;4.26;79.40
14757;BME280;62446;53.214;10.398;2022-11-12T17:24:40;102891.44;;;4.23;78.97
14757;BME280;62446;53.214;10.398;2022-11-12T17:28:02;102893.72;;;4.18;78.00
14757;BME280;62446;53.214;10.398;2022-11-12T17:31:24;102893.81;;;4.06;77.42
14757;BME280;62446;53.214;10.398;2022-11-12T17:34:46;102894.63;;;3.97;78.05
14757;BME280;62446;53.214;10.398;2022-11-12T17:38:10;102884.56;;;3.98;78.29
14757;BME280;62446;53.214;10.398;2022-11-12T17:41:32;102887.72;;;3.93;77.98
14757;BME280;62446;53.214;10.398;2022-11-12T17:44:55;102891.84;;;3.87;78.50
14757;BME280;62446;53.214;10.398;2022-11-12T17:48:17;102883.88;;;3.74;78.33
14757;BME280;62446;53.214;10.398;2022-11-12T17:51:39;102885.44;;;3.67;80.03
14757;BME280;62446;53.214;10.398;2022-11-12T17:55:04;102889.44;;;3.63;79.09
14757;BME280;62446;53.214;10.398;2022-11-12T17:58:27;102893.63;;;3.67;79.74
14757;BME280;62446;53.214;10.398;2022-11-12T18:01:49;102901.47;;;3.60;79.66
14757;BME280;62446;53.214;10.398;2022-11-12T18:05:11;102908.34;;;3.55;78.04
14757;BME280;62446;53.214;10.398;2022-11-12T18:08:33;102908.59;;;3.52;77.68
14757;BME280;62446;53.214;10.398;2022-11-12T18:11:56;102913.72;;;3.45;76.98
14757;BME280;62446;53.214;10.398;2022-11-12T18:15:19;102907.19;;;3.36;77.67
14757;BME280;62446;53.214;10.398;2022-11-12T18:18:41;102903.03;;;3.32;76.73
14757;BME280;62446;53.214;10.398;2022-11-12T18:22:04;102907.00;;;3.28;76.48
14757;BME280;62446;53.214;10.398;2022-11-12T18:25:26;102901.81;;;3.25;75.82
14757;BME280;62446;53.214;10.398;2022-11-12T18:28:51;102906.72;;;3.10;76.29
14757;BME280;62446;53.214;10.398;2022-11-12T18:32:13;102906.84;;;3.08;77.63
14757;BME280;62446;53.214;10.398;2022-11-12T18:35:36;102898.44;;;3.12;76.53
14757;BME280;62446;53.214;10.398;2022-11-12T18:38:58;102903.28;;;2.97;77.51
14757;BME280;62446;53.214;10.398;2022-11-12T18:42:24;102907.47;;;2.80;77.93
14757;BME280;62446;53.214;10.398;2022-11-12T18:45:53;102901.78;;;2.71;80.14
14757;BME280;62446;53.214;10.398;2022-11-12T18:49:15;102898.34;;;2.47;79.86
14757;BME280;62446;53.214;10.398;2022-11-12T18:52:38;102904.53;;;2.49;80.52
14757;BME280;62446;53.214;10.398;2022-11-12T18:56:02;102890.78;;;2.50;78.82
14757;BME280;62446;53.214;10.398;2022-11-12T18:59:24;102889.19;;;2.36;79.39
14757;BME280;62446;53.214;10.398;2022-11-12T19:02:55;102881.53;;;2.19;80.13
14757;BME280;62446;53.214;10.398;2022-11-12T19:06:18;102883.28;;;2.20;80.35
14757;BME280;62446;53.214;10.398;2022-11-12T19:09:41;102876.25;;;2.06;80.23
14757;BME280;62446;53.214;10.398;2022-11-12T19:13:03;102871.16;;;2.13;80.51
14757;BME280;62446;53.214;10.398;2022-11-12T19:16:26;102879.09;;;2.05;80.29
14757;BME280;62446;53.214;10.398;2022-11-12T19:19:50;102867.22;;;1.94;80.36
14757;BME280;62446;53.214;10.398;2022-11-12T19:23:12;102865.25;;;1.96;80.84
14757;BME280;62446;53.214;10.398;2022-11-12T19:26:34;102849.53;;;2.00;80.96
14757;BME280;62446;53.214;10.398;2022-11-12T19:29:57;102853.34;;;2.09;79.84
14757;BME280;62446;53.214;10.398;2022-11-12T19:33:23;102854.88;;;1.90;80.73
14757;BME280;62446;53.214;10.398;2022-11-12T19:36:47;102859.03;;;1.60;81.14
14757;BME280;62446;53.214;10.398;2022-11-12T19:40:29;102850.28;;;1.79;81.39
14757;BME280;62446;53.214;10.398;2022-11-12T19:43:51;102848.44;;;1.80;80.36
14757;BME280;62446;53.214;10.398;2022-11-12T19:47:14;102854.22;;;1.87;80.17
14757;BME280;62446;53.214;10.398;2022-11-12T19:50:36;102846.94;;;1.98;79.89
14757;BME280;62446;53.214;10.398;2022-11-12T19:54:00;102847.56;;;2.02;78.09
14757;BME280;62446;53.214;10.398;2022-11-12T19:57:24;102839.78;;;1.97;77.89
14757;BME280;62446;53.214;10.398;2022-11-12T20:00:47;102847.19;;;1.73;78.59
14757;BME280;62446;53.214;10.398;2022-11-12T20:04:09;102848.16;;;1.60;79.72
14757;BME280;62446;53.214;10.398;2022-11-12T20:07:32;102845.22;;;1.75;80.92
14757;BME280;62446;53.214;10.398;2022-11-12T20:10:56;102835.34;;;1.62;78.94
14757;BME280;62446;53.214;10.398;2022-11-12T20:14:18;102829.13;;;1.60;79.36
14757;BME280;62446;53.214;10.398;2022-11-12T20:17:41;102826.66;;;1.35;80.42
14757;BME280;62446;53.214;10.398;2022-11-12T20:21:03;102837.00;;;1.29;81.29
14757;BME280;62446;53.214;10.398;2022-11-12T20:24:26;102826.78;;;1.56;81.11
14757;BME280;62446;53.214;10.398;2022-11-12T20:27:50;102826.53;;;1.70;78.71
14757;BME280;62446;53.214;10.398;2022-11-12T20:31:13;102822.34;;;1.77;77.69
14757;BME280;62446;53.214;10.398;2022-11-12T20:34:36;102820.72;;;1.63;77.43
14757;BME280;62446;53.214;10.398;2022-11-12T20:37:58;102819.00;;;1.62;79.23
14757;BME280;62446;53.214;10.398;2022-11-12T20:41:23;102813.56;;;1.62;78.66
14757;BME280;62446;53.214;10.398;2022-11-12T20:44:46;102816.28;;;1.51;79.09
14757;BME280;62446;53.214;10.398;2022-11-12T20:48:08;102805.91;;;1.45;80.95
14757;BME280;62446;53.214;10.398;2022-11-12T20:51:31;102816.28;;;1.51;79.51
14757;BME280;62446;53.214;10.398;2022-11-12T20:54:54;102814.28;;;1.30;79.26
14757;BME280;62446;53.214;10.398;2022-11-12T20:58:17;102807.22;;;1.28;79.88
14757;BME280;62446;53.214;10.398;2022-11-12T21:01:40;102800.06;;;1.15;79.92
14757;BME280;62446;53.214;10.398;2022-11-12T21:05:03;102799.56;;;1.22;79.61
14757;BME280;62446;53.214;10.398;2022-11-12T21:08:29;102791.78;;;1.17;79.79
14757;BME280;62446;53.214;10.398;2022-11-12T21:11:51;102790.28;;;1.13;81.00
14757;BME280;62446;53.214;10.398;2022-11-12T21:15:14;102781.16;;;1.14;80.11
14757;BME280;62446;53.214;10.398;2022-11-12T21:18:39;102784.56;;;1.05;80.16
14757;BME280;62446;53.214;10.398;2022-11-12T21:22:01;102785.59;;;1.26;81.42
14757;BME280;62446;53.214;10.398;2022-11-12T21:25:24;102787.84;;;1.44;79.29
14757;BME280;62446;53.214;10.398;2022-11-12T21:28:47;102779.81;;;1.42;79.01
14757;BME280;62446;53.214;10.398;2022-11-12T21:32:09;102778.97;;;1.42;77.54
14757;BME280;62446;53.214;10.398;2022-11-12T21:35:33;102769.81;;;1.54;78.08
14757;BME280;62446;53.214;10.398;2022-11-12T21:38:56;102775.38;;;1.64;77.43
14757;BME280;62446;53.214;10.398;2022-11-12T21:42:18;102767.56;;;1.71;77.70
14757;BME280;62446;53.214;10.398;2022-11-12T21:45:44;102776.94;;;1.78;76.67
14757;BME280;62446;53.214;10.398;2022-11-12T21:49:06;102782.41;;;1.78;76.42
14757;BME280;62446;53.214;10.398;2022-11-12T21:52:30;102787.09;;;1.76;75.67
14757;BME280;62446;53.214;10.398;2022-11-12T21:55:52;102774.75;;;1.72;76.80
14757;BME280;62446;53.214;10.398;2022-11-12T21:59:14;102776.97;;;1.44;79.55
14757;BME280;62446;53.214;10.398;2022-11-12T22:02:36;102769.94;;;1.53;78.90
14757;BME280;62446;53.214;10.398;2022-11-12T22:05:59;102780.16;;;1.49;78.91
14757;BME280;62446;53.214;10.398;2022-11-12T22:09:22;102773.38;;;1.66;78.99
14757;BME280;62446;53.214;10.398;2022-11-12T22:12:45;102773.88;;;1.71;77.61
14757;BME280;62446;53.214;10.398;2022-11-12T22:16:27;102774.00;;;1.58;78.33
14757;BME280;62446;53.214;10.398;2022-11-12T22:19:50;102770.06;;;1.62;78.11
14757;BME280;62446;53.214;10.398;2022-11-12T22:23:12;102762.88;;;1.61;78.38
14757;BME280;62446;53.214;10.398;2022-11-12T22:26:36;102762.88;;;1.50;79.29
14757;BME280;62446;53.214;10.398;2022-11-12T22:29:58;102767.59;;;1.59;79.05
14757;BME280;62446;53.214;10.398;2022-11-12T22:33:20;102771.28;;;1.36;80.25
14757;BME280;62446;53.214;10.398;2022-11-12T22:36:42;102770.28;;;1.37;80.39
14757;BME280;62446;53.214;10.398;2022-11-12T22:40:06;102756.47;;;1.51;80.38
14757;BME280;62446;53.214;10.398;2022-11-12T22:43:34;102755.22;;;1.55;79.49
14757;BME280;62446;53.214;10.398;2022-11-12T22:46:57;102754.47;;;1.53;80.95
14757;BME280;62446;53.214;10.398;2022-11-12T22:50:19;102759.91;;;1.53;80.23
14757;BME280;62446;53.214;10.398;2022-11-12T22:53:42;102754.22;;;1.56;80.22
14757;BME280;62446;53.214;10.398;2022-11-12T22:57:04;102751.50;;;1.67;80.16
14757;BME280;62446;53.214;10.398;2022-11-12T23:00:30;102752.47;;;1.78;80.04
14757;BME280;62446;53.214;10.398;2022-11-12T23:03:56;102743.66;;;1.85;78.53
14757;BME280;62446;53.214;10.398;2022-11-12T23:07:19;102748.00;;;1.88;78.58
14757;BME280;62446;53.214;10.398;2022-11-12T23:10:47;102751.34;;;1.80;78.61
14757;BME280;62446;53.214;10.398;2022-11-12T23:14:13;102744.03;;;1.92;78.29
14757;BME280;62446;53.214;10.398;2022-11-12T23:17:40;102742.53;;;1.99;78.31
14757;BME280;62446;53.214;10.398;2022-11-12T23:21:07;102739.81;;;1.99;77.34
14757;BME280;62446;53.214;10.398;2022-11-12T23:24:36;102741.56;;;2.00;77.18
14757;BME280;62446;53.214;10.398;2022-11-12T23:28:02;102743.53;;;1.98;77.06
14757;BME280;62446;53.214;10.398;2022-11-12T23:31:29;102746.69;;;1.71;78.67
14757;BME280;62446;53.214;10.398;2022-11-12T23:34:54;102741.84;;;1.63;80.18
14757;BME280;62446;53.214;10.398;2022-11-12T23:38:16;102742.56;;;1.77;80.42
14757;BME280;62446;53.214;10.398;2022-11-12T23:41:42;102736.91;;;1.80;78.85
14757;BME280;62446;53.214;10.398;2022-11-12T23:45:08;102737.38;;;1.74;78.51
14757;BME280;62446;53.214;10.398;2022-11-12T23:48:34;102728.75;;;1.80;79.48
14757;BME280;62446;53.214;10.398;2022-11-12T23:51:59;102729.72;;;1.67;79.70
14757;BME280;62446;53.214;10.398;2022-11-12T23:55:24;102732.72;;;1.53;80.48
14757;BME280;62446;53.214;10.398;2022-11-12T23:58:52;102727.66;;;1.37;80.12
